createdAt,value
2018-09-16T00:00:49.748Z,10.99
2018-09-16T00:01:49.901Z,10.98
2018-09-16T00:02:50.049Z,10.88
2018-09-16T00:03:50.197Z,11.06
2018-09-16T00:04:50.349Z,10.73
2018-09-16T00:05:50.499Z,10.73
2018-09-16T00:06:50.651Z,10.88
2018-09-16T00:07:50.800Z,10.89
2018-09-16T00:08:50.949Z,10.78
2018-09-16T00:09:51.098Z,10.89
2018-09-16T00:10:51.244Z,10.91
2018-09-16T00:11:51.396Z,10.99
2018-09-16T00:12:51.544Z,10.91
2018-09-16T00:13:51.693Z,10.92
2018-09-16T00:14:51.842Z,10.96
2018-09-16T00:15:51.994Z,10.96
2018-09-16T00:16:52.142Z,10.94
2018-09-16T00:17:52.296Z,10.92
2018-09-16T00:18:52.441Z,10.88
2018-09-16T00:19:52.590Z,10.91
2018-09-16T00:20:52.740Z,10.89
2018-09-16T00:21:52.888Z,10.86
2018-09-16T00:22:53.040Z,10.96
2018-09-16T00:23:53.186Z,10.94
2018-09-16T00:24:53.333Z,10.88
2018-09-16T00:25:53.481Z,10.96
2018-09-16T00:26:53.633Z,10.92
2018-09-16T00:27:53.781Z,10.78
2018-09-16T00:28:53.929Z,10.63
2018-09-16T00:29:54.082Z,10.60
2018-09-16T00:30:54.231Z,10.56
2018-09-16T00:31:54.378Z,10.68
2018-09-16T00:32:54.528Z,10.62
2018-09-16T00:33:54.675Z,10.55
2018-09-16T00:34:54.824Z,10.60
2018-09-16T00:35:54.974Z,10.59
2018-09-16T00:36:55.123Z,10.55
2018-09-16T00:37:55.271Z,10.47
2018-09-16T00:38:55.424Z,10.46
2018-09-16T00:39:55.568Z,10.44
2018-09-16T00:40:55.717Z,10.43
2018-09-16T00:41:55.866Z,10.43
2018-09-16T00:42:56.013Z,10.37
2018-09-16T00:43:56.164Z,10.40
2018-09-16T00:44:56.312Z,10.43
2018-09-16T00:45:56.468Z,10.39
2018-09-16T00:46:56.612Z,10.46
2018-09-16T00:47:56.764Z,10.47
2018-09-16T00:48:56.912Z,10.53
2018-09-16T00:49:57.060Z,10.55
2018-09-16T00:50:57.209Z,10.47
2018-09-16T00:51:57.358Z,10.58
2018-09-16T00:52:57.498Z,10.44
2018-09-16T00:53:57.645Z,10.40
2018-09-16T00:54:57.795Z,10.34
2018-09-16T00:55:57.948Z,10.36
2018-09-16T00:56:58.090Z,10.37
2018-09-16T00:57:58.237Z,10.34
2018-09-16T00:58:58.386Z,10.43
2018-09-16T00:59:58.536Z,10.43
2018-09-16T01:00:58.683Z,10.34
2018-09-16T01:01:58.837Z,10.36
2018-09-16T01:02:58.982Z,10.40
2018-09-16T01:03:59.137Z,10.33
2018-09-16T01:04:59.280Z,10.34
2018-09-16T01:05:59.429Z,10.33
2018-09-16T01:06:59.577Z,10.34
2018-09-16T01:07:59.722Z,10.40
2018-09-16T01:08:59.876Z,10.40
2018-09-16T01:10:00.022Z,10.34
2018-09-16T01:11:00.169Z,10.24
2018-09-16T01:12:00.318Z,10.26
2018-09-16T01:13:00.465Z,10.25
2018-09-16T01:14:00.615Z,10.10
2018-09-16T01:15:00.765Z,10.25
2018-09-16T01:16:00.910Z,10.04
2018-09-16T01:17:01.061Z,10.07
2018-09-16T01:18:01.207Z,10.06
2018-09-16T01:19:01.358Z,9.96
2018-09-16T01:20:01.511Z,9.91
2018-09-16T01:21:01.660Z,9.97
2018-09-16T01:22:01.805Z,9.85
2018-09-16T01:23:01.947Z,9.96
2018-09-16T01:24:02.100Z,9.89
2018-09-16T01:25:02.250Z,10.00
2018-09-16T01:26:02.397Z,9.88
2018-09-16T01:27:02.589Z,9.88
2018-09-16T01:28:02.694Z,9.85
2018-09-16T01:29:02.842Z,9.88
2018-09-16T01:30:02.991Z,9.96
2018-09-16T01:31:03.147Z,9.89
2018-09-16T01:32:03.287Z,9.85
2018-09-16T01:33:03.437Z,9.91
2018-09-16T01:34:03.586Z,9.89
2018-09-16T01:35:03.737Z,9.88
2018-09-16T01:36:03.885Z,9.82
2018-09-16T01:37:04.033Z,9.82
2018-09-16T01:38:04.184Z,9.76
2018-09-16T01:39:04.332Z,9.86
2018-09-16T01:40:04.481Z,9.86
2018-09-16T01:41:04.629Z,9.78
2018-09-16T01:42:04.780Z,9.82
2018-09-16T01:43:04.928Z,9.76
2018-09-16T01:44:05.073Z,9.82
2018-09-16T01:45:05.225Z,9.89
2018-09-16T01:46:05.370Z,9.86
2018-09-16T01:47:05.519Z,9.99
2018-09-16T01:48:05.667Z,9.83
2018-09-16T01:49:05.815Z,9.93
2018-09-16T01:50:05.965Z,9.89
2018-09-16T01:51:06.111Z,9.91
2018-09-16T01:52:06.260Z,10.03
2018-09-16T01:53:06.407Z,9.93
2018-09-16T01:54:06.558Z,9.97
2018-09-16T01:55:06.707Z,10.01
2018-09-16T01:56:06.855Z,9.97
2018-09-16T01:57:07.004Z,10.10
2018-09-16T01:58:07.152Z,10.06
2018-09-16T01:59:07.301Z,9.93
2018-09-16T02:00:07.450Z,9.97
2018-09-16T02:01:07.597Z,9.94
2018-09-16T02:02:07.755Z,9.82
2018-09-16T02:03:07.896Z,9.85
2018-09-16T02:04:08.044Z,9.89
2018-09-16T02:05:08.192Z,9.89
2018-09-16T02:06:08.339Z,9.78
2018-09-16T02:07:08.486Z,9.81
2018-09-16T02:08:08.636Z,9.85
2018-09-16T02:09:08.786Z,9.75
2018-09-16T02:10:08.932Z,9.83
2018-09-16T02:11:09.082Z,9.91
2018-09-16T02:12:09.226Z,9.81
2018-09-16T02:13:09.379Z,9.81
2018-09-16T02:14:09.531Z,9.73
2018-09-16T02:15:09.677Z,9.76
2018-09-16T02:16:09.823Z,9.76
2018-09-16T02:17:09.973Z,9.73
2018-09-16T02:18:10.120Z,9.71
2018-09-16T02:19:10.267Z,9.60
2018-09-16T02:20:10.412Z,9.60
2018-09-16T02:21:10.556Z,9.50
2018-09-16T02:22:10.712Z,9.45
2018-09-16T02:23:10.858Z,9.43
2018-09-16T02:24:11.007Z,9.32
2018-09-16T02:25:11.157Z,9.28
2018-09-16T02:26:11.356Z,9.24
2018-09-16T02:27:11.455Z,9.27
2018-09-16T02:28:11.604Z,9.13
2018-09-16T02:29:11.750Z,9.13
2018-09-16T02:30:11.900Z,9.15
2018-09-16T02:31:12.046Z,9.09
2018-09-16T02:32:12.195Z,9.15
2018-09-16T02:33:12.344Z,9.21
2018-09-16T02:34:12.495Z,9.16
2018-09-16T02:35:12.640Z,9.13
2018-09-16T02:36:12.795Z,9.02
2018-09-16T02:37:12.937Z,9.05
2018-09-16T02:38:13.087Z,8.97
2018-09-16T02:39:13.234Z,8.84
2018-09-16T02:40:13.387Z,8.91
2018-09-16T02:41:13.545Z,8.93
2018-09-16T02:42:13.680Z,8.91
2018-09-16T02:43:13.894Z,8.91
2018-09-16T02:44:13.981Z,8.90
2018-09-16T02:45:14.126Z,8.91
2018-09-16T02:46:14.276Z,9.05
2018-09-16T02:47:14.432Z,8.94
2018-09-16T02:48:14.575Z,9.06
2018-09-16T02:49:14.725Z,9.05
2018-09-16T02:50:14.871Z,9.02
2018-09-16T02:51:15.018Z,8.91
2018-09-16T02:52:15.165Z,8.94
2018-09-16T02:53:15.316Z,8.90
2018-09-16T02:54:15.464Z,8.90
2018-09-16T02:55:15.611Z,8.96
2018-09-16T02:56:15.757Z,8.99
2018-09-16T02:57:15.908Z,8.93
2018-09-16T02:58:16.054Z,9.02
2018-09-16T02:59:16.202Z,9.01
2018-09-16T03:00:16.350Z,9.02
2018-09-16T03:01:16.496Z,9.01
2018-09-16T03:02:16.644Z,9.01
2018-09-16T03:03:16.796Z,8.91
2018-09-16T03:04:16.988Z,8.87
2018-09-16T03:05:17.089Z,8.81
2018-09-16T03:06:17.235Z,8.88
2018-09-16T03:07:17.382Z,8.84
2018-09-16T03:08:17.531Z,8.88
2018-09-16T03:09:17.690Z,8.84
2018-09-16T03:10:17.827Z,8.87
2018-09-16T03:11:17.976Z,8.97
2018-09-16T03:12:18.123Z,9.02
2018-09-16T03:13:18.268Z,9.01
2018-09-16T03:14:18.418Z,9.02
2018-09-16T03:15:18.564Z,9.05
2018-09-16T03:16:18.719Z,9.06
2018-09-16T03:17:18.864Z,8.93
2018-09-16T03:18:19.014Z,8.87
2018-09-16T03:19:19.159Z,8.81
2018-09-16T03:20:19.307Z,8.84
2018-09-16T03:21:19.455Z,8.75
2018-09-16T03:22:19.605Z,8.63
2018-09-16T03:23:19.749Z,8.65
2018-09-16T03:24:19.898Z,8.58
2018-09-16T03:25:20.045Z,8.57
2018-09-16T03:26:20.195Z,8.58
2018-09-16T03:27:20.340Z,8.53
2018-09-16T03:28:20.488Z,8.47
2018-09-16T03:29:20.638Z,8.50
2018-09-16T03:30:20.782Z,8.53
2018-09-16T03:31:20.934Z,8.47
2018-09-16T03:32:21.079Z,8.54
2018-09-16T03:33:21.226Z,8.57
2018-09-16T03:34:21.373Z,8.60
2018-09-16T03:35:21.526Z,8.47
2018-09-16T03:36:21.673Z,8.44
2018-09-16T03:37:21.820Z,8.39
2018-09-16T03:38:21.966Z,8.50
2018-09-16T03:39:22.117Z,8.37
2018-09-16T03:40:22.263Z,8.28
2018-09-16T03:41:22.411Z,8.40
2018-09-16T03:42:22.556Z,8.39
2018-09-16T03:43:22.705Z,8.35
2018-09-16T03:44:22.856Z,8.39
2018-09-16T03:45:23.002Z,8.32
2018-09-16T03:46:23.146Z,8.32
2018-09-16T03:47:23.298Z,8.33
2018-09-16T03:48:23.457Z,8.30
2018-09-16T03:49:23.598Z,8.33
2018-09-16T03:50:23.739Z,8.25
2018-09-16T03:51:23.909Z,8.33
2018-09-16T03:52:24.034Z,8.40
2018-09-16T03:53:24.180Z,8.39
2018-09-16T03:54:24.328Z,8.29
2018-09-16T03:55:24.475Z,8.26
2018-09-16T03:56:24.622Z,8.17
2018-09-16T03:57:24.771Z,8.21
2018-09-16T03:58:24.922Z,8.21
2018-09-16T03:59:25.068Z,8.26
2018-09-16T04:00:25.225Z,8.30
2018-09-16T04:01:25.363Z,8.28
2018-09-16T04:02:25.511Z,8.30
2018-09-16T04:03:25.658Z,8.29
2018-09-16T04:04:25.804Z,8.26
2018-09-16T04:05:25.953Z,8.20
2018-09-16T04:06:26.097Z,8.18
2018-09-16T04:07:26.250Z,8.26
2018-09-16T04:08:26.396Z,8.26
2018-09-16T04:09:26.543Z,8.21
2018-09-16T04:10:26.691Z,8.25
2018-09-16T04:11:26.836Z,8.28
2018-09-16T04:12:26.987Z,8.25
2018-09-16T04:13:27.132Z,8.28
2018-09-16T04:14:27.280Z,8.21
2018-09-16T04:15:27.429Z,8.25
2018-09-16T04:16:27.577Z,8.25
2018-09-16T04:17:27.728Z,8.26
2018-09-16T04:18:27.878Z,8.28
2018-09-16T04:19:28.019Z,8.21
2018-09-16T04:20:28.168Z,8.12
2018-09-16T04:21:28.316Z,8.08
2018-09-16T04:22:28.462Z,8.14
2018-09-16T04:23:28.609Z,8.03
2018-09-16T04:24:28.758Z,8.10
2018-09-16T04:25:28.907Z,8.10
2018-09-16T04:26:29.056Z,8.11
2018-09-16T04:27:29.201Z,8.07
2018-09-16T04:28:29.349Z,8.12
2018-09-16T04:29:29.495Z,8.12
2018-09-16T04:30:29.657Z,8.07
2018-09-16T04:31:29.794Z,8.00
2018-09-16T04:32:29.943Z,8.08
2018-09-16T04:33:30.183Z,8.08
2018-09-16T04:34:30.237Z,8.21
2018-09-16T04:35:30.382Z,8.21
2018-09-16T04:36:30.530Z,8.14
2018-09-16T04:37:30.677Z,8.22
2018-09-16T04:38:30.822Z,8.20
2018-09-16T04:39:30.970Z,8.18
2018-09-16T04:40:31.117Z,8.12
2018-09-16T04:41:31.264Z,8.21
2018-09-16T04:42:31.409Z,8.08
2018-09-16T04:43:31.556Z,8.15
2018-09-16T04:44:31.704Z,8.20
2018-09-16T04:45:31.851Z,8.11
2018-09-16T04:46:31.996Z,8.17
2018-09-16T04:47:32.141Z,8.14
2018-09-16T04:48:32.289Z,8.02
2018-09-16T04:49:32.435Z,8.07
2018-09-16T04:50:32.584Z,8.11
2018-09-16T04:51:32.728Z,8.07
2018-09-16T04:52:32.876Z,8.08
2018-09-16T04:53:33.029Z,8.07
2018-09-16T04:54:33.175Z,8.04
2018-09-16T04:55:33.324Z,7.97
2018-09-16T04:56:33.467Z,7.94
2018-09-16T04:57:33.618Z,7.90
2018-09-16T04:58:33.765Z,7.89
2018-09-16T04:59:33.911Z,7.84
2018-09-16T05:00:34.059Z,7.85
2018-09-16T05:01:34.206Z,7.87
2018-09-16T05:02:34.355Z,7.87
2018-09-16T05:03:34.499Z,7.93
2018-09-16T05:04:34.645Z,7.96
2018-09-16T05:05:34.799Z,7.97
2018-09-16T05:06:34.941Z,8.04
2018-09-16T05:07:35.087Z,7.96
2018-09-16T05:08:35.238Z,7.94
2018-09-16T05:09:35.389Z,7.96
2018-09-16T05:10:35.662Z,7.87
2018-09-16T05:11:35.673Z,7.89
2018-09-16T05:12:35.828Z,7.90
2018-09-16T05:13:35.977Z,7.85
2018-09-16T05:14:36.124Z,7.87
2018-09-16T05:15:36.271Z,7.97
2018-09-16T05:16:36.420Z,7.93
2018-09-16T05:17:36.568Z,8.02
2018-09-16T05:18:36.718Z,7.97
2018-09-16T05:19:36.863Z,8.00
2018-09-16T05:20:37.009Z,7.94
2018-09-16T05:21:37.162Z,8.03
2018-09-16T05:22:37.384Z,8.03
2018-09-16T05:23:37.450Z,8.12
2018-09-16T05:24:37.602Z,8.20
2018-09-16T05:25:37.750Z,8.18
2018-09-16T05:26:37.898Z,8.17
2018-09-16T05:27:38.046Z,8.17
2018-09-16T05:28:38.195Z,8.15
2018-09-16T05:29:38.342Z,8.18
2018-09-16T05:30:38.494Z,8.25
2018-09-16T05:31:38.640Z,8.17
2018-09-16T05:32:38.786Z,8.22
2018-09-16T05:33:38.937Z,8.26
2018-09-16T05:34:39.092Z,8.33
2018-09-16T05:35:39.231Z,8.29
2018-09-16T05:36:39.381Z,8.29
2018-09-16T05:37:39.526Z,8.30
2018-09-16T05:38:39.675Z,8.37
2018-09-16T05:39:39.824Z,8.39
2018-09-16T05:40:39.971Z,8.36
2018-09-16T05:41:40.124Z,8.35
2018-09-16T05:42:40.272Z,8.50
2018-09-16T05:43:40.421Z,8.62
2018-09-16T05:44:40.569Z,8.55
2018-09-16T05:45:40.716Z,8.55
2018-09-16T05:46:40.865Z,8.63
2018-09-16T05:47:41.012Z,8.76
2018-09-16T05:48:41.161Z,8.72
2018-09-16T05:49:41.310Z,8.83
2018-09-16T05:50:41.462Z,8.75
2018-09-16T05:51:41.612Z,8.90
2018-09-16T05:52:41.828Z,8.87
2018-09-16T05:53:41.910Z,8.93
2018-09-16T05:54:42.053Z,8.97
2018-09-16T05:55:42.199Z,8.97
2018-09-16T05:56:42.348Z,8.84
2018-09-16T05:57:42.498Z,8.88
2018-09-16T05:58:42.645Z,8.91
2018-09-16T05:59:42.797Z,8.83
2018-09-16T06:00:42.947Z,8.90
2018-09-16T06:01:43.091Z,8.97
2018-09-16T06:02:43.243Z,8.96
2018-09-16T06:03:43.390Z,9.01
2018-09-16T06:04:43.563Z,9.04
2018-09-16T06:05:43.694Z,9.04
2018-09-16T06:06:43.842Z,9.04
2018-09-16T06:07:43.989Z,9.18
2018-09-16T06:08:44.139Z,9.25
2018-09-16T06:09:44.285Z,9.20
2018-09-16T06:10:44.453Z,9.16
2018-09-16T06:11:44.574Z,9.16
2018-09-16T06:12:44.721Z,9.04
2018-09-16T06:13:44.868Z,8.91
2018-09-16T06:14:45.020Z,8.90
2018-09-16T06:15:45.169Z,8.96
2018-09-16T06:16:45.317Z,9.01
2018-09-16T06:17:45.464Z,8.94
2018-09-16T06:18:45.612Z,8.94
2018-09-16T06:19:45.761Z,8.91
2018-09-16T06:20:45.910Z,8.97
2018-09-16T06:21:46.059Z,8.93
2018-09-16T06:22:46.231Z,8.94
2018-09-16T06:23:46.358Z,8.97
2018-09-16T06:24:46.507Z,8.96
2018-09-16T06:25:46.656Z,9.06
2018-09-16T06:26:46.805Z,9.05
2018-09-16T06:27:46.963Z,9.10
2018-09-16T06:28:47.112Z,9.27
2018-09-16T06:29:47.243Z,9.38
2018-09-16T06:30:47.391Z,9.46
2018-09-16T06:31:47.543Z,9.50
2018-09-16T06:32:47.690Z,9.39
2018-09-16T06:33:47.854Z,9.49
2018-09-16T06:34:47.990Z,9.49
2018-09-16T06:35:48.140Z,9.39
2018-09-16T06:36:48.286Z,9.40
2018-09-16T06:37:48.438Z,9.40
2018-09-16T06:38:48.589Z,9.45
2018-09-16T06:39:48.732Z,9.50
2018-09-16T06:40:48.884Z,9.64
2018-09-16T06:41:49.034Z,9.63
2018-09-16T06:42:49.184Z,9.53
2018-09-16T06:43:49.340Z,9.56
2018-09-16T06:44:49.480Z,9.63
2018-09-16T06:45:49.633Z,9.68
2018-09-16T06:46:49.781Z,9.86
2018-09-16T06:47:49.930Z,9.88
2018-09-16T06:48:50.084Z,9.89
2018-09-16T06:49:50.225Z,9.73
2018-09-16T06:50:50.420Z,9.89
2018-09-16T06:51:50.530Z,9.83
2018-09-16T06:52:50.694Z,9.89
2018-09-16T06:53:50.829Z,9.86
2018-09-16T06:54:50.995Z,9.94
2018-09-16T06:55:51.122Z,9.94
2018-09-16T06:56:51.269Z,10.04
2018-09-16T06:57:51.415Z,10.14
2018-09-16T06:58:51.567Z,10.09
2018-09-16T06:59:51.719Z,10.12
2018-09-16T07:00:51.887Z,10.26
2018-09-16T07:01:52.015Z,10.32
2018-09-16T07:02:52.164Z,10.47
2018-09-16T07:03:52.312Z,10.55
2018-09-16T07:04:52.461Z,10.58
2018-09-16T07:05:52.611Z,10.46
2018-09-16T07:06:52.765Z,10.51
2018-09-16T07:07:52.914Z,10.55
2018-09-16T07:08:53.062Z,10.68
2018-09-16T07:09:53.210Z,10.55
2018-09-16T07:10:53.358Z,10.66
2018-09-16T07:11:53.511Z,10.70
2018-09-16T07:12:53.660Z,10.78
2018-09-16T07:13:53.809Z,10.89
2018-09-16T07:14:53.961Z,10.99
2018-09-16T07:15:54.109Z,11.07
2018-09-16T07:16:54.260Z,11.20
2018-09-16T07:17:54.412Z,11.14
2018-09-16T07:18:54.565Z,11.17
2018-09-16T07:19:54.712Z,11.31
2018-09-16T07:20:54.862Z,11.39
2018-09-16T07:21:55.008Z,11.38
2018-09-16T07:22:55.156Z,11.47
2018-09-16T07:23:55.309Z,11.49
2018-09-16T07:24:55.456Z,11.49
2018-09-16T07:25:55.603Z,11.56
2018-09-16T07:26:55.824Z,11.53
2018-09-16T07:27:55.904Z,11.49
2018-09-16T07:28:56.053Z,11.61
2018-09-16T07:29:56.205Z,11.67
2018-09-16T07:30:56.352Z,11.78
2018-09-16T07:31:56.507Z,11.78
2018-09-16T07:32:56.654Z,11.87
2018-09-16T07:33:56.872Z,12.04
2018-09-16T07:34:56.955Z,12.06
2018-09-16T07:35:57.105Z,12.11
2018-09-16T07:36:57.258Z,12.11
2018-09-16T07:37:57.410Z,12.11
2018-09-16T07:38:57.556Z,12.24
2018-09-16T07:39:57.708Z,12.19
2018-09-16T07:40:57.856Z,12.13
2018-09-16T07:41:58.012Z,12.24
2018-09-16T07:42:58.158Z,12.19
2018-09-16T07:43:58.311Z,12.20
2018-09-16T07:44:58.462Z,12.37
2018-09-16T07:45:58.616Z,12.37
2018-09-16T07:46:58.769Z,12.46
2018-09-16T07:47:58.920Z,12.52
2018-09-16T07:48:59.070Z,12.52
2018-09-16T07:49:59.228Z,12.60
2018-09-16T07:50:59.369Z,12.57
2018-09-16T07:51:59.523Z,12.57
2018-09-16T07:52:59.832Z,12.67
2018-09-16T07:53:59.824Z,12.77
2018-09-16T07:54:59.976Z,12.89
2018-09-16T07:56:00.138Z,12.96
2018-09-16T07:57:00.279Z,13.02
2018-09-16T07:58:00.433Z,13.14
2018-09-16T07:59:00.582Z,13.22
2018-09-16T08:00:00.731Z,13.36
2018-09-16T08:01:00.884Z,13.51
2018-09-16T08:02:01.040Z,13.46
2018-09-16T08:03:01.187Z,13.58
2018-09-16T08:04:01.340Z,13.65
2018-09-16T08:05:01.495Z,13.61
2018-09-16T08:06:01.724Z,13.71
2018-09-16T08:07:01.797Z,13.71
2018-09-16T08:08:01.954Z,13.84
2018-09-16T08:09:02.106Z,13.74
2018-09-16T08:10:02.270Z,13.95
2018-09-16T08:11:02.420Z,13.94
2018-09-16T08:12:02.572Z,14.01
2018-09-16T08:13:02.722Z,14.04
2018-09-16T08:14:02.873Z,14.06
2018-09-16T08:15:03.039Z,14.01
2018-09-16T08:16:03.183Z,14.01
2018-09-16T08:17:03.354Z,14.24
2018-09-16T08:18:03.505Z,14.28
2018-09-16T08:19:03.658Z,14.29
2018-09-16T08:20:03.808Z,14.34
2018-09-16T08:21:04.092Z,14.47
2018-09-16T08:22:04.130Z,14.38
2018-09-16T08:23:04.282Z,14.50
2018-09-16T08:24:04.434Z,14.54
2018-09-16T08:25:04.588Z,14.50
2018-09-16T08:26:04.738Z,14.50
2018-09-16T08:27:04.892Z,14.61
2018-09-16T08:28:05.042Z,14.84
2018-09-16T08:29:05.191Z,14.83
2018-09-16T08:30:05.344Z,14.83
2018-09-16T08:31:05.495Z,14.83
2018-09-16T08:32:05.645Z,14.91
2018-09-16T08:33:05.798Z,15.03
2018-09-16T08:34:05.951Z,15.02
2018-09-16T08:35:06.103Z,15.05
2018-09-16T08:36:06.253Z,15.08
2018-09-16T08:37:06.406Z,15.12
2018-09-16T08:38:06.617Z,15.15
2018-09-16T08:39:06.710Z,15.23
2018-09-16T08:40:06.862Z,15.36
2018-09-16T08:41:07.024Z,15.48
2018-09-16T08:42:07.178Z,15.54
2018-09-16T08:43:07.332Z,15.64
2018-09-16T08:44:07.484Z,15.70
2018-09-16T08:45:07.632Z,15.84
2018-09-16T08:46:07.785Z,15.89
2018-09-16T08:47:07.937Z,15.92
2018-09-16T08:48:08.094Z,15.86
2018-09-16T08:49:08.243Z,16.14
2018-09-16T08:50:08.396Z,16.25
2018-09-16T08:51:08.549Z,16.26
2018-09-16T08:52:08.753Z,16.42
2018-09-16T08:53:08.853Z,16.34
2018-09-16T08:54:09.005Z,16.52
2018-09-16T08:55:09.162Z,16.50
2018-09-16T08:56:09.313Z,16.56
2018-09-16T08:57:09.468Z,16.56
2018-09-16T08:58:09.679Z,16.60
2018-09-16T08:59:09.773Z,16.65
2018-09-16T09:00:09.926Z,16.77
2018-09-16T09:01:10.078Z,16.88
2018-09-16T09:02:10.232Z,16.90
2018-09-16T09:03:10.388Z,16.83
2018-09-16T09:04:10.570Z,16.98
2018-09-16T09:05:10.695Z,17.06
2018-09-16T09:06:10.852Z,17.18
2018-09-16T09:07:11.004Z,17.17
2018-09-16T09:08:11.157Z,17.20
2018-09-16T09:09:11.308Z,17.20
2018-09-16T09:10:11.465Z,17.25
2018-09-16T09:11:11.616Z,17.28
2018-09-16T09:12:11.771Z,17.48
2018-09-16T09:13:11.927Z,17.55
2018-09-16T09:14:12.105Z,17.57
2018-09-16T09:15:12.233Z,17.62
2018-09-16T09:16:12.382Z,17.73
2018-09-16T09:17:12.532Z,17.76
2018-09-16T09:18:12.688Z,17.85
2018-09-16T09:19:12.838Z,17.89
2018-09-16T09:20:12.991Z,17.97
2018-09-16T09:21:13.149Z,18.17
2018-09-16T09:22:13.296Z,18.21
2018-09-16T09:23:13.498Z,18.28
2018-09-16T09:24:13.603Z,18.39
2018-09-16T09:25:13.757Z,18.57
2018-09-16T09:26:13.915Z,18.61
2018-09-16T09:27:14.072Z,18.79
2018-09-16T09:28:14.225Z,18.77
2018-09-16T09:29:14.380Z,18.44
2018-09-16T09:30:14.535Z,18.47
2018-09-16T09:31:14.691Z,18.54
2018-09-16T09:32:14.846Z,18.61
2018-09-16T09:33:15.000Z,18.74
2018-09-16T09:34:15.153Z,18.73
2018-09-16T09:35:15.297Z,18.74
2018-09-16T09:36:15.509Z,18.87
2018-09-16T09:37:15.664Z,18.98
2018-09-16T09:38:15.814Z,19.01
2018-09-16T09:39:15.971Z,19.17
2018-09-16T09:40:16.126Z,19.36
2018-09-16T09:41:16.281Z,19.39
2018-09-16T09:42:16.435Z,19.57
2018-09-16T09:43:16.587Z,19.61
2018-09-16T09:44:16.743Z,19.65
2018-09-16T09:45:16.900Z,19.79
2018-09-16T09:46:17.059Z,19.65
2018-09-16T09:47:17.250Z,19.75
2018-09-16T09:48:17.365Z,19.80
2018-09-16T09:49:17.518Z,19.86
2018-09-16T09:50:17.673Z,19.91
2018-09-16T09:51:17.829Z,19.93
2018-09-16T09:52:17.985Z,19.97
2018-09-16T09:53:18.150Z,20.09
2018-09-16T09:54:18.295Z,20.05
2018-09-16T09:55:18.452Z,20.15
2018-09-16T09:56:18.610Z,20.34
2018-09-16T09:57:18.762Z,20.38
2018-09-16T09:58:18.919Z,20.39
2018-09-16T09:59:19.107Z,20.47
2018-09-16T10:00:19.229Z,20.66
2018-09-16T10:01:19.382Z,20.74
2018-09-16T10:02:19.537Z,20.83
2018-09-16T10:03:19.692Z,20.76
2018-09-16T10:04:19.847Z,20.86
2018-09-16T10:05:20.001Z,20.87
2018-09-16T10:06:20.158Z,20.86
2018-09-16T10:07:20.312Z,20.90
2018-09-16T10:08:20.467Z,21.01
2018-09-16T10:09:20.622Z,21.06
2018-09-16T10:10:20.777Z,21.14
2018-09-16T10:11:20.934Z,21.14
2018-09-16T10:12:21.095Z,21.08
2018-09-16T10:13:21.248Z,21.20
2018-09-16T10:14:21.423Z,21.19
2018-09-16T10:15:21.561Z,21.20
2018-09-16T10:16:21.713Z,21.26
2018-09-16T10:17:21.867Z,21.24
2018-09-16T10:18:22.023Z,21.29
2018-09-16T10:19:22.181Z,21.39
2018-09-16T10:20:22.337Z,21.38
2018-09-16T10:21:22.491Z,21.17
2018-09-16T10:22:22.651Z,21.16
2018-09-16T10:23:22.812Z,21.35
2018-09-16T10:24:23.022Z,21.46
2018-09-16T10:25:23.128Z,21.46
2018-09-16T10:26:23.286Z,21.63
2018-09-16T10:27:23.438Z,21.53
2018-09-16T10:28:23.592Z,21.29
2018-09-16T10:29:23.747Z,21.48
2018-09-16T10:30:23.904Z,21.50
2018-09-16T10:31:24.062Z,21.61
2018-09-16T10:32:24.218Z,21.60
2018-09-16T10:33:24.373Z,21.53
2018-09-16T10:34:24.530Z,21.66
2018-09-16T10:35:24.685Z,21.72
2018-09-16T10:36:24.844Z,21.79
2018-09-16T10:37:25.011Z,21.81
2018-09-16T10:38:25.181Z,21.81
2018-09-16T10:39:25.327Z,21.78
2018-09-16T10:40:25.491Z,21.83
2018-09-16T10:41:25.646Z,21.83
2018-09-16T10:42:25.804Z,21.97
2018-09-16T10:43:25.962Z,21.81
2018-09-16T10:44:26.115Z,21.88
2018-09-16T10:45:26.270Z,21.78
2018-09-16T10:46:26.426Z,21.75
2018-09-16T10:47:26.582Z,21.74
2018-09-16T10:48:26.814Z,21.95
2018-09-16T10:49:26.901Z,22.02
2018-09-16T10:50:27.053Z,22.22
2018-09-16T10:51:27.208Z,22.31
2018-09-16T10:52:27.367Z,22.37
2018-09-16T10:53:27.531Z,22.22
2018-09-16T10:54:27.686Z,22.31
2018-09-16T10:55:27.842Z,22.28
2018-09-16T10:56:27.998Z,22.10
2018-09-16T10:57:28.157Z,21.90
2018-09-16T10:58:28.312Z,21.97
2018-09-16T10:59:28.467Z,22.09
2018-09-16T11:00:28.620Z,22.23
2018-09-16T11:01:28.781Z,22.37
2018-09-16T11:02:28.938Z,22.50
2018-09-16T11:03:29.094Z,22.38
2018-09-16T11:04:29.258Z,22.20
2018-09-16T11:05:29.409Z,22.20
2018-09-16T11:06:29.564Z,22.23
2018-09-16T11:07:29.721Z,22.22
2018-09-16T11:08:29.878Z,22.37
2018-09-16T11:09:30.034Z,22.37
2018-09-16T11:10:30.198Z,22.52
2018-09-16T11:11:30.354Z,22.56
2018-09-16T11:12:30.516Z,22.74
2018-09-16T11:13:30.673Z,22.83
2018-09-16T11:14:30.829Z,22.86
2018-09-16T11:15:30.988Z,22.99
2018-09-16T11:16:31.144Z,22.93
2018-09-16T11:17:31.298Z,22.89
2018-09-16T11:18:31.457Z,22.80
2018-09-16T11:19:31.615Z,23.01
2018-09-16T11:20:31.772Z,22.97
2018-09-16T11:21:31.929Z,23.14
2018-09-16T11:22:32.090Z,23.26
2018-09-16T11:23:32.248Z,23.23
2018-09-16T11:24:32.403Z,23.39
2018-09-16T11:25:32.572Z,23.40
2018-09-16T11:26:32.730Z,23.42
2018-09-16T11:27:32.886Z,23.15
2018-09-16T11:28:33.042Z,23.19
2018-09-16T11:29:33.202Z,23.24
2018-09-16T11:30:33.361Z,23.07
2018-09-16T11:31:33.521Z,23.08
2018-09-16T11:32:33.674Z,23.01
2018-09-16T11:33:33.834Z,23.09
2018-09-16T11:34:33.988Z,23.15
2018-09-16T11:35:34.183Z,23.29
2018-09-16T11:36:34.305Z,23.27
2018-09-16T11:37:34.471Z,23.40
2018-09-16T11:38:34.619Z,23.50
2018-09-16T11:39:34.779Z,23.60
2018-09-16T11:40:34.939Z,23.67
2018-09-16T11:41:35.094Z,23.68
2018-09-16T11:42:35.255Z,23.75
2018-09-16T11:43:35.416Z,23.87
2018-09-16T11:44:35.572Z,23.77
2018-09-16T11:45:35.730Z,23.86
2018-09-16T11:46:35.888Z,23.82
2018-09-16T11:47:36.046Z,23.97
2018-09-16T11:48:36.203Z,23.98
2018-09-16T11:49:36.368Z,23.98
2018-09-16T11:50:36.520Z,24.01
2018-09-16T11:51:36.713Z,24.17
2018-09-16T11:52:36.845Z,24.17
2018-09-16T11:53:37.006Z,24.20
2018-09-16T11:54:37.165Z,24.08
2018-09-16T11:55:37.323Z,24.10
2018-09-16T11:56:37.483Z,24.20
2018-09-16T11:57:37.640Z,24.20
2018-09-16T11:58:37.801Z,24.44
2018-09-16T11:59:37.958Z,24.19
2018-09-16T12:00:38.118Z,24.14
2018-09-16T12:01:38.278Z,24.04
2018-09-16T12:02:38.439Z,24.24
2018-09-16T12:03:38.598Z,24.26
2018-09-16T12:04:38.756Z,24.45
2018-09-16T12:05:38.916Z,24.23
2018-09-16T12:06:39.073Z,24.26
2018-09-16T12:07:39.233Z,24.31
2018-09-16T12:08:39.390Z,23.98
2018-09-16T12:09:39.556Z,24.17
2018-09-16T12:10:39.715Z,24.07
2018-09-16T12:11:39.906Z,24.14
2018-09-16T12:12:40.055Z,24.02
2018-09-16T12:13:40.214Z,24.13
2018-09-16T12:14:40.378Z,24.12
2018-09-16T12:15:40.531Z,24.23
2018-09-16T12:16:40.695Z,24.44
2018-09-16T12:17:40.851Z,24.49
2018-09-16T12:18:41.011Z,24.45
2018-09-16T12:19:41.170Z,24.69
2018-09-16T12:20:41.332Z,24.82
2018-09-16T12:21:41.504Z,24.79
2018-09-16T12:22:41.664Z,24.53
2018-09-16T12:23:41.829Z,24.59
2018-09-16T12:24:41.988Z,24.60
2018-09-16T12:25:42.147Z,24.68
2018-09-16T12:26:42.323Z,24.24
2018-09-16T12:27:42.473Z,24.02
2018-09-16T12:28:42.632Z,23.92
2018-09-16T12:29:42.792Z,23.76
2018-09-16T12:30:43.001Z,24.02
2018-09-16T12:31:43.116Z,24.16
2018-09-16T12:32:43.274Z,24.35
2018-09-16T12:33:43.428Z,24.14
2018-09-16T12:34:43.597Z,24.45
2018-09-16T12:35:43.751Z,24.54
2018-09-16T12:36:43.914Z,24.75
2018-09-16T12:37:44.079Z,24.68
2018-09-16T12:38:44.234Z,24.91
2018-09-16T12:39:44.409Z,25.06
2018-09-16T12:40:44.569Z,24.77
2018-09-16T12:41:44.733Z,25.06
2018-09-16T12:42:44.899Z,24.94
2018-09-16T12:43:45.107Z,24.88
2018-09-16T12:44:45.284Z,24.95
2018-09-16T12:45:45.446Z,24.98
2018-09-16T12:46:45.601Z,25.02
2018-09-16T12:47:45.764Z,25.01
2018-09-16T12:48:45.917Z,25.00
2018-09-16T12:49:46.081Z,25.01
2018-09-16T12:50:46.266Z,25.13
2018-09-16T12:51:46.417Z,25.24
2018-09-16T12:52:46.626Z,25.22
2018-09-16T12:53:46.785Z,25.42
2018-09-16T12:54:46.989Z,25.39
2018-09-16T12:55:47.147Z,25.43
2018-09-16T12:56:47.289Z,25.46
2018-09-16T12:57:47.452Z,25.47
2018-09-16T12:58:47.612Z,25.46
2018-09-16T12:59:47.771Z,25.71
2018-09-16T13:00:47.931Z,25.49
2018-09-16T13:01:48.091Z,25.56
2018-09-16T13:02:48.249Z,25.72
2018-09-16T13:03:48.407Z,25.79
2018-09-16T13:04:48.569Z,25.74
2018-09-16T13:05:48.736Z,25.69